Time;durP1;ratioP1;P1;durP2;ratioP2;P2;SDS_P1;SDS_P2;PMS_P1;PMS_P2;Temp;Humidity;BMP_temperature;BMP_pressure;BME280_temperature;BME280_humidity;BME280_pressure;Samples;Min_cycle;Max_cycle;Signal;HPM_P1;HPM_P2
2022/09/11 00:09:47;;;;;;;22.70;18.30;;;;;;;12.71;91.28;98983.09;447607;1271;143767;-61
2022/09/11 00:19:53;;;;;;;21.60;17.30;;;;;;;12.70;90.85;98981.90;447144;1271;144841;-61
2022/09/11 00:30:00;;;;;;;26.40;20.20;;;;;;;12.69;90.90;98980.80;447493;1271;142725;-61
2022/09/11 00:40:07;;;;;;;26.70;20.40;;;;;;;12.65;91.06;98972.83;447611;1271;142682;-61
2022/09/11 00:50:17;;;;;;;27.90;19.30;;;;;;;12.66;91.18;98961.24;446730;1271;143402;-61
2022/09/11 01:00:24;;;;;;;29.70;22.00;;;;;;;12.59;91.33;98958.37;447220;1271;143144;-61
2022/09/11 01:10:42;;;;;;;31.20;20.80;;;;;;;12.59;91.52;98949.78;447611;1271;142696;-61
2022/09/11 01:21:04;;;;;;;30.30;21.40;;;;;;;12.62;91.62;98948.90;445803;1270;1402514;-61
2022/09/11 01:31:15;;;;;;;27.40;20.50;;;;;;;12.64;91.89;98948.90;447503;1271;143027;-61
2022/09/11 01:41:27;;;;;;;36.00;24.40;;;;;;;12.55;91.93;98947.86;446807;1270;144448;-61
2022/09/11 01:51:37;;;;;;;29.70;19.80;;;;;;;12.56;92.33;98940.58;447546;1271;146109;-61
2022/09/11 02:01:49;;;;;;;24.30;20.00;;;;;;;12.53;92.58;98933.27;447536;1271;145176;-61
2022/09/11 02:11:58;;;;;;;23.20;19.00;;;;;;;12.54;92.93;98931.82;447593;1271;144287;-61
2022/09/11 02:22:02;;;;;;;;;;;;;;;12.57;93.24;98919.48;447640;1271;143845;-61
2022/09/11 02:32:10;;;;;;;16.40;13.40;;;;;;;12.62;93.49;98907.27;447002;1271;129912;-61
2022/09/11 02:42:29;;;;;;;12.00;10.30;;;;;;;12.64;93.55;98906.90;447645;1271;143498;-61
2022/09/11 02:52:47;;;;;;;14.70;11.10;;;;;;;12.65;93.56;98900.88;447596;1271;143667;-60
2022/09/11 03:02:53;;;;;;;12.40;10.30;;;;;;;12.69;93.76;98898.77;447353;1272;143616;-61
2022/09/11 03:12:59;;;;;;;9.10;8.00;;;;;;;12.71;93.85;98903.91;447606;1271;142526;-60
2022/09/11 03:23:07;;;;;;;11.20;8.70;;;;;;;12.70;93.94;98904.33;446899;1271;142547;-61
2022/09/11 03:33:12;;;;;;;9.10;8.00;;;;;;;12.66;93.89;98902.17;447631;1271;141866;-60
2022/09/11 03:43:18;;;;;;;6.90;6.30;;;;;;;12.59;93.79;98901.02;447657;1271;142148;-61
2022/09/11 03:53:23;;;;;;;9.40;6.70;;;;;;;12.56;93.61;98909.30;435650;1271;142096;-59
2022/09/11 04:03:30;;;;;;;7.10;6.40;;;;;;;12.44;92.99;98911.91;430535;1271;147284;-60
2022/09/11 04:13:38;;;;;;;7.40;6.50;;;;;;;12.25;92.57;98910.83;435065;1271;147559;-61
2022/09/11 04:23:44;;;;;;;9.10;7.70;;;;;;;12.12;92.60;98908.68;446861;1271;142680;-61
2022/09/11 04:33:50;;;;;;;6.60;5.90;;;;;;;12.06;92.83;98912.70;447600;1271;143685;-60
2022/09/11 04:44:02;;;;;;;10.40;6.90;;;;;;;12.05;93.05;98911.05;446866;1271;143164;-60
2022/09/11 04:54:15;;;;;;;8.80;7.70;;;;;;;12.07;93.15;98903.99;447626;1271;143330;-61
2022/09/11 05:04:20;;;;;;;10.50;9.40;;;;;;;12.08;93.27;98901.54;447583;1271;143414;-61
2022/09/11 05:14:31;;;;;;;11.80;9.50;;;;;;;12.05;93.44;98905.02;446847;1271;143693;-60
2022/09/11 05:24:37;;;;;;;14.80;12.90;;;;;;;12.06;93.67;98906.01;447554;1270;142599;-60
2022/09/11 05:34:43;;;;;;;12.30;10.10;;;;;;;12.11;93.74;98910.00;447423;1268;142522;-61
2022/09/11 05:44:48;;;;;;;13.50;12.00;;;;;;;12.23;93.73;98911.17;446709;1271;142759;-60
2022/09/11 05:54:55;;;;;;;14.50;11.20;;;;;;;12.36;93.67;98918.88;447557;1269;144187;-60
2022/09/11 06:05:01;;;;;;;13.40;11.00;;;;;;;12.44;93.36;98920.86;446790;1270;143136;-59
2022/09/11 06:15:08;;;;;;;15.30;11.80;;;;;;;12.50;93.20;98921.02;447646;1269;143142;-60
2022/09/11 06:25:34;;;;;;;11.70;9.80;;;;;;;12.51;93.10;98925.73;447514;1270;143853;-59
2022/09/11 06:35:40;;;;;;;9.30;8.30;;;;;;;12.58;93.09;98917.21;446704;1271;143170;-60
2022/09/11 06:45:47;;;;;;;9.80;8.20;;;;;;;12.76;93.21;98919.08;447551;1271;143060;-60
2022/09/11 06:55:52;;;;;;;10.20;8.90;;;;;;;12.92;92.64;98923.39;447485;1271;142341;-60
2022/09/11 07:05:58;;;;;;;10.40;9.00;;;;;;;12.97;92.45;98924.26;447299;1271;208186;-58
2022/09/11 07:16:06;;;;;;;9.20;8.30;;;;;;;13.17;92.32;98918.65;447462;1271;142695;-59
2022/09/11 07:26:13;;;;;;;9.20;8.30;;;;;;;13.39;91.73;98919.06;446840;1271;143361;-59
2022/09/11 07:36:20;;;;;;;8.80;8.00;;;;;;;13.61;91.24;98911.73;447561;1271;144273;-59
2022/09/11 07:46:26;;;;;;;8.90;8.00;;;;;;;13.87;90.50;98908.65;447707;1271;142019;-59
2022/09/11 07:56:35;;;;;;;9.90;7.90;;;;;;;13.79;89.77;98915.33;446959;1271;142467;-59
2022/09/11 08:06:40;;;;;;;7.60;6.90;;;;;;;14.08;90.02;98915.23;447645;1269;142962;-58
2022/09/11 08:16:47;;;;;;;10.60;5.30;;;;;;;14.80;88.47;98918.50;447229;1271;142667;-59
2022/09/11 08:26:52;;;;;;;6.70;6.10;;;;;;;14.80;87.01;98925.01;441849;1271;142178;-57
2022/09/11 08:36:58;;;;;;;9.10;6.50;;;;;;;14.67;86.77;98931.09;430182;1271;143702;-58
2022/09/11 08:47:08;;;;;;;7.00;6.40;;;;;;;14.54;86.25;98934.66;440258;1271;142199;-58
2022/09/11 08:57:20;;;;;;;7.50;6.80;;;;;;;14.79;86.03;98936.12;445372;1271;144357;-58
2022/09/11 09:07:35;;;;;;;7.20;6.50;;;;;;;15.18;84.93;98944.02;429530;1274;143591;-58
2022/09/11 09:17:48;;;;;;;6.00;5.50;;;;;;;15.99;83.21;98945.02;429502;1271;142571;-59
2022/09/11 09:27:59;;;;;;;7.20;6.50;;;;;;;16.59;80.52;98935.13;429738;1271;142261;-59
2022/09/11 09:38:11;;;;;;;5.30;4.80;;;;;;;17.96;78.13;98927.07;446635;1271;143629;-60
2022/09/11 09:48:17;;;;;;;5.30;4.80;;;;;;;18.81;75.38;98925.34;447691;1271;142492;-59
2022/09/11 09:58:25;;;;;;;5.20;4.40;;;;;;;17.87;73.66;98933.59;447487;1270;142143;-60
2022/09/11 10:08:36;;;;;;;5.60;4.80;;;;;;;16.56;74.28;98943.04;436185;1271;142241;-59
2022/09/11 10:18:45;;;;;;;6.20;5.60;;;;;;;15.71;75.38;98941.86;432893;1271;149230;-58
2022/09/11 10:28:53;;;;;;;5.90;5.40;;;;;;;15.78;75.48;98945.94;437865;1269;141126;-59
2022/09/11 10:39:01;;;;;;;5.80;5.30;;;;;;;16.14;75.23;98948.73;444888;1270;141671;-60
2022/09/11 10:49:18;;;;;;;6.20;5.50;;;;;;;16.31;74.47;98954.20;441892;1270;142518;-56
2022/09/11 10:59:29;;;;;;;5.60;5.00;;;;;;;15.62;73.97;98952.23;437660;1272;143005;-59
2022/09/11 11:09:51;;;;;;;4.60;4.20;;;;;;;15.89;74.51;98959.39;443400;1270;144315;-57
2022/09/11 11:20:16;;;;;;;4.00;3.70;;;;;;;16.62;72.12;98960.52;446591;1270;198906;-58
2022/09/11 11:30:27;;;;;;;4.50;4.00;;;;;;;15.72;71.95;98968.08;447335;1270;142986;-58
2022/09/11 11:40:40;;;;;;;4.40;4.00;;;;;;;15.59;72.83;98973.73;447490;1270;198103;-58
2022/09/11 11:50:48;;;;;;;3.50;3.20;;;;;;;15.48;72.15;98981.98;446881;1269;143868;-58
2022/09/11 12:01:00;;;;;;;3.50;3.20;;;;;;;15.50;72.44;98988.19;447674;1270;143052;-58
2022/09/11 12:11:08;;;;;;;4.40;4.00;;;;;;;15.55;71.40;98997.75;444028;1270;145414;-58
2022/09/11 12:21:36;;;;;;;3.50;3.10;;;;;;;16.05;70.27;98999.71;442286;1271;145421;-60
2022/09/11 12:31:55;;;;;;;;;;;;;;;16.62;68.19;98999.56;447558;1269;143724;-59
2022/09/11 12:42:35;;;;;;;4.00;3.20;;;;;;;16.71;66.30;99003.21;433059;1270;131862;-58
2022/09/11 12:52:50;;;;;;;3.60;3.30;;;;;;;16.75;65.57;99004.27;433301;1271;141757;-58
2022/09/11 13:02:58;;;;;;;5.10;3.80;;;;;;;16.52;65.40;99007.55;433773;1270;141702;-56
2022/09/11 13:13:06;;;;;;;3.60;3.20;;;;;;;16.34;66.12;99020.30;441396;1270;145584;-59
2022/09/11 13:23:17;;;;;;;;;;;;;;;16.09;65.97;99019.12;432553;1271;1494095;-58
2022/09/11 13:33:29;;;;;;;5.90;4.00;;;;;;;15.90;66.37;99014.75;441466;1271;128742;-59
2022/09/11 13:43:38;;;;;;;5.60;3.00;;;;;;;15.79;66.54;99013.80;434911;1271;142119;-59
2022/09/11 13:53:48;;;;;;;4.90;3.30;;;;;;;15.89;66.63;99011.16;431861;1270;143834;-58
2022/09/11 14:03:54;;;;;;;4.80;3.70;;;;;;;16.25;66.19;99013.86;430631;1270;143390;-58
2022/09/11 14:14:09;;;;;;;4.60;2.90;;;;;;;16.49;65.70;99013.88;429801;1270;143118;-59
2022/09/11 14:24:28;;;;;;;2.90;2.00;;;;;;;16.97;64.84;99013.80;440228;1271;142098;-58
2022/09/11 14:34:33;;;;;;;3.00;2.40;;;;;;;17.32;63.68;99019.33;442143;1270;142527;-57
2022/09/11 14:44:41;;;;;;;3.80;2.80;;;;;;;17.16;62.72;99015.78;433523;1270;141680;-58
2022/09/11 14:54:47;;;;;;;3.90;2.20;;;;;;;16.93;62.56;99012.47;435690;1271;143943;-58
2022/09/11 15:04:54;;;;;;;3.40;2.10;;;;;;;16.79;62.93;99009.73;436592;1270;142006;-58
2022/09/11 15:15:00;;;;;;;2.40;2.20;;;;;;;16.77;62.54;99008.69;433816;1270;142702;-58
2022/09/11 15:25:08;;;;;;;4.20;2.50;;;;;;;16.67;61.99;99012.86;432482;1271;142532;-59
2022/09/11 15:35:17;;;;;;;3.30;2.60;;;;;;;16.49;61.61;99019.74;430770;1270;143622;-58
2022/09/11 15:45:23;;;;;;;3.00;2.70;;;;;;;16.34;61.84;99026.08;431618;1271;142535;-59
2022/09/11 15:55:29;;;;;;;2.00;1.60;;;;;;;16.22;62.06;99033.77;431576;1271;142326;-59
2022/09/11 16:05:41;;;;;;;2.40;1.80;;;;;;;16.07;62.59;99034.32;433421;1271;140631;-58
2022/09/11 16:15:48;;;;;;;4.40;2.70;;;;;;;15.92;63.29;99040.86;431971;1270;142649;-58
2022/09/11 16:25:54;;;;;;;2.60;2.40;;;;;;;15.73;63.95;99043.45;431013;1271;141586;-58
2022/09/11 16:36:04;;;;;;;4.50;3.00;;;;;;;15.33;64.96;99047.70;431104;1271;147919;-57
2022/09/11 16:46:11;;;;;;;4.00;3.00;;;;;;;14.87;66.07;99048.58;430913;1271;146505;-57
2022/09/11 16:56:20;;;;;;;4.50;3.40;;;;;;;14.42;67.38;99056.69;431286;1271;142603;-58
2022/09/11 17:06:28;;;;;;;5.60;3.10;;;;;;;14.07;68.47;99068.77;430182;1271;142122;-62
2022/09/11 17:16:35;;;;;;;3.60;3.10;;;;;;;13.75;69.65;99074.45;431916;1271;143207;-59
2022/09/11 17:26:41;;;;;;;7.50;4.00;;;;;;;13.48;70.77;99081.68;432253;1270;141544;-58
2022/09/11 17:36:47;;;;;;;5.00;3.40;;;;;;;13.18;71.57;99090.42;430656;1271;141413;-58
2022/09/11 17:46:55;;;;;;;4.70;3.10;;;;;;;12.94;72.24;99092.58;430747;1271;142215;-58
2022/09/11 17:57:01;;;;;;;5.80;4.60;;;;;;;12.69;72.93;99101.73;430847;1271;144694;-58
2022/09/11 18:07:07;;;;;;;4.30;2.90;;;;;;;12.45;73.53;99109.48;432093;1271;143502;-58
2022/09/11 18:17:13;;;;;;;4.60;2.90;;;;;;;12.23;74.21;99126.46;430579;1271;142103;-58
2022/09/11 18:27:19;;;;;;;9.60;4.00;;;;;;;12.02;74.80;99133.98;430864;1271;141416;-60
2022/09/11 18:37:24;;;;;;;4.60;3.70;;;;;;;11.81;75.58;99144.52;431375;1271;142362;-58
2022/09/11 18:47:30;;;;;;;5.50;3.80;;;;;;;11.66;76.55;99149.34;429841;1271;142145;-56
2022/09/11 18:57:36;;;;;;;4.10;3.70;;;;;;;11.46;77.38;99157.48;432008;1270;142129;-58
2022/09/11 19:07:49;;;;;;;4.60;4.20;;;;;;;11.24;78.15;99169.77;430334;1273;142354;-56
2022/09/11 19:17:57;;;;;;;6.50;5.10;;;;;;;11.04;78.98;99171.78;431245;1271;142579;-57
2022/09/11 19:28:05;;;;;;;7.20;5.10;;;;;;;10.87;79.84;99175.63;432487;1271;142126;-58
2022/09/11 19:38:10;;;;;;;8.80;5.00;;;;;;;10.68;80.57;99178.16;430191;1271;142509;-57
2022/09/11 19:48:16;;;;;;;5.80;5.30;;;;;;;10.55;81.10;99182.58;430622;1272;142143;-59
2022/09/11 19:58:22;;;;;;;5.40;4.20;;;;;;;10.46;81.34;99188.64;431437;1271;141946;-57
2022/09/11 20:08:29;;;;;;;7.90;5.10;;;;;;;10.33;81.53;99194.05;430725;1271;142392;-56
2022/09/11 20:18:35;;;;;;;9.20;4.50;;;;;;;10.24;81.49;99195.53;430633;1271;142390;-57
2022/09/11 20:28:41;;;;;;;4.00;3.60;;;;;;;10.13;81.72;99197.66;431474;1271;141443;-58
2022/09/11 20:38:51;;;;;;;7.40;4.20;;;;;;;10.02;81.84;99198.77;431215;1271;142653;-58
2022/09/11 20:48:57;;;;;;;4.40;4.00;;;;;;;9.89;81.79;99202.79;430968;1271;145847;-56
2022/09/11 20:59:05;;;;;;;4.50;3.30;;;;;;;9.74;81.87;99206.25;446732;1270;142180;-58
2022/09/11 21:09:12;;;;;;;5.40;3.10;;;;;;;9.63;81.96;99209.42;446941;1271;142437;-58
2022/09/11 21:19:17;;;;;;;4.00;2.90;;;;;;;9.61;81.83;99214.58;444193;1271;142037;-58
2022/09/11 21:29:23;;;;;;;5.80;2.90;;;;;;;9.51;81.86;99214.01;446415;1269;141806;-58
2022/09/11 21:39:29;;;;;;;3.40;3.10;;;;;;;9.39;81.91;99215.46;447485;1271;142583;-59
2022/09/11 21:49:35;;;;;;;2.80;2.50;;;;;;;9.28;82.12;99220.94;447571;1271;143093;-59
2022/09/11 21:59:40;;;;;;;4.70;3.70;;;;;;;9.17;82.33;99223.90;446754;1270;141885;-59
2022/09/11 22:09:47;;;;;;;4.30;3.00;;;;;;;9.09;82.46;99224.42;447320;1271;142345;-59
2022/09/11 22:19:53;;;;;;;4.00;2.60;;;;;;;9.15;82.57;99221.59;447656;1270;142348;-58
2022/09/11 22:29:58;;;;;;;5.50;3.00;;;;;;;9.11;82.62;99223.21;447665;1270;143324;-58
2022/09/11 22:40:06;;;;;;;5.70;3.10;;;;;;;8.99;82.82;99217.69;447588;1270;145260;-58
2022/09/11 22:50:12;;;;;;;4.90;2.90;;;;;;;8.87;82.93;99218.61;446532;1271;143211;-58
2022/09/11 23:00:18;;;;;;;7.80;3.50;;;;;;;8.76;83.06;99221.75;447533;1270;142035;-57
2022/09/11 23:10:24;;;;;;;3.50;3.20;;;;;;;8.65;83.42;99225.17;447183;1271;142015;-59
2022/09/11 23:20:32;;;;;;;6.00;3.20;;;;;;;8.56;83.67;99226.29;446273;1273;142484;-59
2022/09/11 23:30:40;;;;;;;3.40;3.10;;;;;;;8.55;83.95;99229.67;447104;1272;143463;-59
2022/09/11 23:40:47;;;;;;;3.50;3.20;;;;;;;8.50;83.86;99228.55;447082;1273;141596;-59
2022/09/11 23:50:52;;;;;;;4.10;3.50;;;;;;;8.49;84.42;99223.38;446371;1273;143521;-59
